2004 HETA (2003359S15177)


On this page: IBTrACS data - Map and Plots - Positions - Intensities - Original source data

Summary

Start Dec 25
End Jan 12
Basin SP
LMI 140 kt
Sources jtwc_sh
nadi
wellington
neumann
In WMO? Yes
Previous storm 2004 DARIUS (SI)
Previous in basin 2004 DEBBIE (SP)
Concurrent storms 2003 TD1225 (WP)
2004 DARIUS (SI)
2004 HETA (SP)
2004 KEN (SI)
Next in basin Missing
Next storm 2004 KEN (SI)

top of page IBTrACS Data: File Access

Image of storm

top of page Plots:

Map of storm track will not appear if FTP is down
Time series of cyclone Maximum Sustained Wind will not appear if FTP is down
Time series of cyclone Minimum Central Pressure will not appear if FTP is down

top of page Track Data:Position

jtwc_sh nadi wellington neumann
Date Lat Lon Lat Lon Lat Lon Lat Lon
2003-12-25 06:00:00 -15.0 176.5 -15.0 176.5
2003-12-25 12:00:00 -15.1 177.2 -15.1 177.2
2003-12-25 18:00:00 -15.1 178.0 -15.1 178.0
2003-12-26 00:00:00 -15.1 178.4 -15.1 178.4
2003-12-26 06:00:00 -15.2 178.6 -15.2 178.6
2003-12-26 12:00:00 -15.2 178.7 -15.2 178.7
2003-12-26 18:00:00 -15.2 179.0 -15.2 179.0
2003-12-27 00:00:00 -15.2 179.2 -15.2 179.2
2003-12-27 06:00:00 -15.0 179.4 -15.0 179.4
2003-12-27 12:00:00 -14.9 179.6 -14.9 179.6
2003-12-27 18:00:00 -14.9 179.8 -14.9 179.8
2003-12-28 00:00:00 -14.8 -180.0 -14.8 180.0
2003-12-28 06:00:00 -14.8 -179.8 -14.8 -179.8
2003-12-28 12:00:00 -14.7 -179.7 -14.7 -179.7
2003-12-28 18:00:00 -14.6 -179.6 -14.6 -179.6
2003-12-29 00:00:00 -14.6 -179.5 -14.6 -179.5
2003-12-29 06:00:00 -14.5 -179.3 -14.5 -179.3
2003-12-29 12:00:00 -14.3 -180.0 -14.4 -179.1 -14.4 -179.1 -14.3 180.0
2003-12-29 18:00:00 -13.6 -179.7 -14.3 -179.0 -14.3 -179.0 -13.6 -179.7
2003-12-30 00:00:00 -13.2 -179.1 -14.1 -178.4 -14.1 -178.4 -13.2 -179.1
2003-12-30 06:00:00 -12.9 -178.6 -13.8 -178.1 -13.8 -178.1 -12.9 -178.6
2003-12-30 12:00:00 -12.7 -178.1 -13.6 -177.8 -13.6 -177.8 -12.7 -178.1
2003-12-30 18:00:00 -12.6 -177.7 -13.4 -177.5 -13.4 -177.5 -12.6 -177.7
2003-12-31 00:00:00 -12.6 -177.4 -13.1 -177.2 -13.1 -177.2 -12.6 -177.4
2003-12-31 06:00:00 -12.7 -177.1 -12.7 -176.8 -12.7 -176.8 -12.7 -177.1
jtwc_sh nadi wellington neumann
2003-12-31 12:00:00 -12.3 -176.6 -12.1 -176.3 -12.1 -176.3 -12.3 -176.6
2003-12-31 18:00:00 -11.6 -176.1 -11.4 -175.9 -11.4 -175.9 -11.6 -176.1
2004-01-01 00:00:00 -10.5 -175.8 -10.5 -175.6 -10.5 -175.6 -10.5 -175.8
2004-01-01 06:00:00 -9.5 -175.4 -9.2 -175.0 -9.2 -175.0 -9.5 -175.4
2004-01-01 12:00:00 -8.6 -175.1 -8.7 -174.3 -8.7 -174.3 -8.6 -175.1
2004-01-01 18:00:00 -8.1 -174.8 -8.3 -174.1 -8.3 -174.1 -8.1 -174.8
2004-01-02 00:00:00 -8.0 -174.4 -8.0 -174.2 -8.0 -174.2 -8.0 -174.4
2004-01-02 06:00:00 -8.0 -174.1 -8.1 -174.1 -8.1 -174.1 -8.0 -174.1
2004-01-02 12:00:00 -8.2 -173.9 -8.2 -174.0 -8.2 -174.0 -8.2 -173.9
2004-01-02 18:00:00 -8.6 -173.8 -8.4 -173.9 -8.4 -173.9 -8.6 -173.8
2004-01-03 00:00:00 -9.2 -173.8 -9.3 -173.9 -9.3 -173.9 -9.2 -173.8
2004-01-03 06:00:00 -9.8 -173.9 -9.7 -173.8 -9.7 -173.8 -9.8 -173.9
2004-01-03 12:00:00 -10.5 -174.0 -10.5 -174.2 -10.5 -174.2 -10.5 -174.0
2004-01-03 18:00:00 -10.6 -174.6 -10.6 -174.6 -10.6 -174.6 -10.6 -174.6
2004-01-04 00:00:00 -11.2 -174.8 -10.8 -174.8 -10.8 -174.8 -11.2 -174.8
2004-01-04 06:00:00 -11.7 -174.5 -11.5 -174.5 -11.5 -174.5 -11.7 -174.5
2004-01-04 12:00:00 -12.3 -174.3 -12.3 -174.3 -12.3 -174.3 -12.3 -174.3
2004-01-04 18:00:00 -13.2 -174.1 -13.2 -174.2 -13.2 -174.2 -13.2 -174.1
2004-01-05 00:00:00 -14.0 -173.9 -13.9 -174.1 -13.9 -174.1 -14.0 -173.9
2004-01-05 06:00:00 -14.6 -173.4 -14.7 -173.5 -14.7 -173.5 -14.6 -173.4
2004-01-05 12:00:00 -15.6 -172.9 -15.6 -173.0 -15.6 -173.0 -15.6 -172.9
2004-01-05 18:00:00 -16.8 -171.9 -16.7 -172.2 -16.7 -172.2 -16.8 -171.9
2004-01-06 00:00:00 -18.2 -170.8 -18.1 -171.1 -18.1 -171.1 -18.2 -170.8
2004-01-06 06:00:00 -19.8 -169.7 -19.8 -169.9 -19.8 -169.9 -19.8 -169.7
jtwc_sh nadi wellington neumann
2004-01-06 12:00:00 -21.3 -168.4 -21.5 -168.5 -21.5 -168.5 -21.3 -168.4
2004-01-06 18:00:00 -22.9 -167.1 -22.8 -167.1 -22.8 -167.1 -22.9 -167.1
2004-01-07 00:00:00 -24.4 -165.4 -24.4 -165.6 -24.4 -165.6 -24.4 -165.4
2004-01-07 06:00:00 -26.2 -164.0 -25.6 -164.4 -25.6 -164.4 -26.2 -164.0
2004-01-07 12:00:00 -27.7 -162.3 -27.0 -163.2 -27.0 -163.2 -27.7 -162.3
2004-01-07 18:00:00 -28.9 -160.8 -28.5 -161.5 -28.5 -161.5 -28.9 -160.8
2004-01-08 00:00:00 -30.3 -159.7 -30.1 -160.1 -30.1 -160.1 -30.3 -159.7
2004-01-08 06:00:00 -31.6 -158.9 -31.5 -159.0 -31.5 -159.0 -31.6 -158.9
2004-01-08 12:00:00 -32.5 -158.2 -32.2 -158.6 -32.2 -158.6 -32.5 -158.2
2004-01-08 18:00:00 -33.2 -157.7 -32.7 -158.6 -32.7 -158.6 -33.2 -157.7
2004-01-09 00:00:00 -33.7 -157.3 -33.0 -159.0 -33.0 -159.0 -33.7 -157.3
2004-01-09 06:00:00 -34.2 -156.9 -33.1 -159.2 -33.1 -159.2 -34.2 -156.9
2004-01-09 12:00:00 -34.8 -156.4 -33.2 -159.5 -33.2 -159.5 -34.8 -156.4
2004-01-09 18:00:00 -33.3 -159.8 -33.3 -159.8
2004-01-10 00:00:00 -33.4 -160.4 -33.4 -160.4
2004-01-10 06:00:00 -33.5 -161.5 -33.5 -161.5
2004-01-10 12:00:00 -33.2 -165.0 -33.2 -165.0
2004-01-10 18:00:00 -32.0 -166.5 -32.0 -166.5
2004-01-11 00:00:00 -30.7 -167.0 -30.7 -167.0
2004-01-11 06:00:00 -30.6 -167.2 -30.6 -167.2
2004-01-11 12:00:00 -30.5 -167.4 -30.5 -167.4
2004-01-11 18:00:00 -30.5 -167.5 -30.5 -167.5
2004-01-12 00:00:00 -30.4 -167.6 -30.4 -167.6

top of pageTrack Data:Intensity

jtwc_sh nadi wellington neumann
Date Wind Pres Wind Pres Wind Pres Wind Pres
2003-12-25 06:00:00 15. 1004. 15. 1004.
2003-12-25 12:00:00 15. 1004. 15. 1004.
2003-12-25 18:00:00 15. 1004. 15. 1004.
2003-12-26 00:00:00 15. 1004. 15. 1004.
2003-12-26 06:00:00 15. 1004. 15. 1004.
2003-12-26 12:00:00 15. 1004. 15. 1004.
2003-12-26 18:00:00 15. 1004. 15. 1004.
2003-12-27 00:00:00 15. 1004. 15. 1004.
2003-12-27 06:00:00 15. 1004. 15. 1004.
2003-12-27 12:00:00 15. 1004. 15. 1004.
2003-12-27 18:00:00 20. 1002. 20. 1002.
2003-12-28 00:00:00 20. 1002. 20. 1002.
2003-12-28 06:00:00 20. 1002. 20. 1002.
2003-12-28 12:00:00 20. 1002. 20. 1002.
2003-12-28 18:00:00 20. 1002. 20. 1002.
2003-12-29 00:00:00 20. 1002. 20. 1002.
2003-12-29 06:00:00 20. 1002. 20. 1002.
2003-12-29 12:00:00 20. 1004. 20. 1002. 20. 1002. 20.
2003-12-29 18:00:00 20. 1004. 20. 1002. 20. 1002. 20.
2003-12-30 00:00:00 25. 1009. 25. 1000. 25. 1000. 25.
2003-12-30 06:00:00 25. 1002. 25. 1000. 25. 1000. 25.
2003-12-30 12:00:00 25. 1002. 25. 1000. 25. 1000. 25.
2003-12-30 18:00:00 30. 1000. 30. 998. 30. 998. 30.
2003-12-31 00:00:00 30. 1000. 30. 998. 30. 998. 30.
2003-12-31 06:00:00 30. 1000. 30. 997. 30. 997. 30.
jtwc_sh nadi wellington neumann
2003-12-31 12:00:00 30. 1000. 30. 997. 30. 997. 30.
2003-12-31 18:00:00 30. 1000. 30. 997. 30. 997. 30.
2004-01-01 00:00:00 30. 1000. 30. 997. 30. 997. 30.
2004-01-01 06:00:00 35. 997. 30. 997. 30. 997. 35.
2004-01-01 12:00:00 35. 997. 30. 996. 30. 996. 35.
2004-01-01 18:00:00 35. 997. 30. 996. 30. 996. 35.
2004-01-02 00:00:00 40. 994. 35. 995. 35. 995. 40.
2004-01-02 06:00:00 45. 991. 45. 987. 45. 987. 45.
2004-01-02 12:00:00 50. 987. 50. 985. 50. 985. 50.
2004-01-02 18:00:00 55. 984. 55. 980. 55. 980. 55.
2004-01-03 00:00:00 60. 990. 60. 975. 60. 975. 60.
2004-01-03 06:00:00 65. 976. 60. 975. 60. 975. 65.
2004-01-03 12:00:00 65. 976. 60. 975. 60. 975. 65.
2004-01-03 18:00:00 75. 967. 70. 965. 70. 965. 75.
2004-01-04 00:00:00 75. 967. 75. 960. 75. 960. 75.
2004-01-04 06:00:00 85. 973. 80. 955. 80. 955. 85.
2004-01-04 12:00:00 105. 938. 90. 940. 90. 940. 105.
2004-01-04 18:00:00 125. 936. 100. 925. 100. 925. 125.
2004-01-05 00:00:00 140. 921. 115. 915. 115. 915. 140.
2004-01-05 06:00:00 140. 898. 115. 915. 115. 915. 140.
2004-01-05 12:00:00 140. 898. 115. 915. 115. 915. 140.
2004-01-05 18:00:00 130. 931. 115. 915. 115. 915. 130.
2004-01-06 00:00:00 130. 931. 115. 915. 115. 915. 130.
2004-01-06 06:00:00 120. 922. 110. 920. 110. 920. 120.
jtwc_sh nadi wellington neumann
2004-01-06 12:00:00 115. 927. 100. 925. 100. 925. 115.
2004-01-06 18:00:00 105. 938. 95. 930. 95. 930. 105.
2004-01-07 00:00:00 95. 966. 90. 940. 90. 940. 95.
2004-01-07 06:00:00 80. 976. 80. 955. 80. 955. 80.
2004-01-07 12:00:00 65. 976. 70. 965. 70. 965. 65.
2004-01-07 18:00:00 50. 997. 60. 975. 60. 975. 50.
2004-01-08 00:00:00 45. 1000. 55. 980. 55. 980. 45.
2004-01-08 06:00:00 30. 1000. 55. 980. 55. 980. 30.
2004-01-08 12:00:00 30. 1000. 50. 984. 50. 984. 30.
2004-01-08 18:00:00 40. 994. 50. 985. 50. 985. 40.
2004-01-09 00:00:00 35. 997. 50. 986. 50. 986. 35.
2004-01-09 06:00:00 30. 1000. 50. 986. 50. 986. 30.
2004-01-09 12:00:00 30. 1000. 45. 987. 45. 987. 30.
2004-01-09 18:00:00 40. 990. 40. 990.
2004-01-10 00:00:00 35. 993. 35. 993.
2004-01-10 06:00:00 35. 994. 35. 994.
2004-01-10 12:00:00 35. 995. 35. 995.
2004-01-10 18:00:00 35. 995. 35. 995.
2004-01-11 00:00:00 35. 995. 35. 995.
2004-01-11 06:00:00 35. 995. 35. 995.
2004-01-11 12:00:00 30. 996. 30. 996.
2004-01-11 18:00:00 30. 997. 30. 997.
2004-01-12 00:00:00 30. 999. 30. 999.

top of page Links to source data

Source Source file Format
jtwc_sh bsh072004.txt ATCF
nadi RSMC-Nadi-2003-04-BT-Data.txt:Line=17:HETA Text table
wellington TC_BT_1967_2006.csv:Line=7444:HETA Text table
neumann tracks.sh:Storm=1286:HETA:BSH072004:JTWC HURDAT